Time;durP1;ratioP1;P1;durP2;ratioP2;P2;SDS_P1;SDS_P2;PMS_P1;PMS_P2;Temp;Humidity;BMP_temperature;BMP_pressure;BME280_temperature;BME280_humidity;BME280_pressure;Samples;Min_cycle;Max_cycle;Signal;HPM_P1;HPM_P2
2023/04/18 00:00:19;;;;;;;6.68;3.42;;;;;;;14.10;69.72;98419.09;5000073;28;20132;-75
2023/04/18 00:02:44;;;;;;;6.38;3.50;;;;;;;14.10;69.66;98421.72;4983453;28;20029;-75
2023/04/18 00:05:11;;;;;;;6.80;3.80;;;;;;;14.10;69.83;98426.97;4983558;28;20141;-75
2023/04/18 00:07:36;;;;;;;7.07;3.45;;;;;;;14.07;69.51;98427.25;4999290;28;20115;-75
2023/04/18 00:10:03;;;;;;;6.07;3.50;;;;;;;14.07;69.61;98429.88;5015222;28;20396;-76
2023/04/18 00:12:29;;;;;;;6.68;4.05;;;;;;;14.07;69.36;98424.63;4983488;28;20125;-75
2023/04/18 00:14:57;;;;;;;6.47;3.55;;;;;;;14.04;69.37;98419.66;5015515;28;20088;-75
2023/04/18 00:17:25;;;;;;;10.95;3.75;;;;;;;14.01;69.34;98419.97;4984091;28;20034;-75
2023/04/18 00:19:51;;;;;;;6.18;3.72;;;;;;;13.99;69.24;98419.28;4983713;28;20037;-75
2023/04/18 00:22:21;;;;;;;6.10;3.53;;;;;;;13.96;69.54;98424.84;4983455;28;20021;-76
2023/04/18 00:24:47;;;;;;;8.35;3.90;;;;;;;13.98;69.43;98420.25;4984412;28;20036;-75
2023/04/18 00:27:12;;;;;;;6.40;3.83;;;;;;;13.98;69.45;98415.84;4999843;28;20040;-75
2023/04/18 00:29:39;;;;;;;5.53;4.18;;;;;;;13.97;69.35;98411.56;4999329;28;20026;-75
2023/04/18 00:32:05;;;;;;;6.93;3.80;;;;;;;13.97;69.63;98416.00;5015659;28;20049;-76
2023/04/18 00:34:30;;;;;;;6.85;3.97;;;;;;;13.98;69.74;98415.00;4998502;28;20038;-75
2023/04/18 00:36:56;;;;;;;6.45;3.80;;;;;;;13.94;69.74;98411.84;4983154;28;20060;-77
2023/04/18 00:39:21;;;;;;;7.55;4.38;;;;;;;13.96;69.63;98414.34;5015676;28;20033;-76
2023/04/18 00:41:47;;;;;;;6.05;3.90;;;;;;;13.97;69.84;98410.75;5015402;28;20095;-76
2023/04/18 00:44:12;;;;;;;6.47;3.67;;;;;;;13.95;69.71;98410.91;5033036;28;20033;-76
2023/04/18 00:46:38;;;;;;;5.03;3.60;;;;;;;13.96;70.06;98403.84;5015181;28;20041;-75
2023/04/18 00:49:03;;;;;;;9.43;3.90;;;;;;;13.93;70.00;98395.28;5015464;28;20041;-76
2023/04/18 00:51:29;;;;;;;5.32;3.75;;;;;;;13.96;69.72;98407.28;4999291;28;20029;-76
2023/04/18 00:53:55;;;;;;;6.82;3.58;;;;;;;13.94;69.89;98404.81;4999039;28;20033;-75
2023/04/18 00:56:22;;;;;;;7.57;3.60;;;;;;;13.97;70.10;98400.25;4999307;28;20040;-76
2023/04/18 00:58:48;;;;;;;5.43;3.30;;;;;;;13.99;69.92;98401.75;4998709;28;20416;-76
2023/04/18 01:01:13;;;;;;;6.45;3.50;;;;;;;13.96;69.81;98398.59;4998378;28;20040;-77
2023/04/18 01:03:39;;;;;;;6.00;3.95;;;;;;;13.99;70.02;98401.75;4998823;28;20053;-77
2023/04/18 01:06:05;;;;;;;8.82;3.63;;;;;;;13.99;69.80;98403.53;4998348;28;20038;-77
2023/04/18 01:08:30;;;;;;;6.00;3.80;;;;;;;13.99;70.07;98400.91;5015423;28;20054;-76
2023/04/18 01:10:56;;;;;;;5.28;3.53;;;;;;;13.99;70.01;98396.50;5015100;28;20025;-77
2023/04/18 01:13:23;;;;;;;7.15;3.63;;;;;;;14.00;69.98;98402.59;4982788;28;20140;-77
2023/04/18 01:15:49;;;;;;;6.18;3.78;;;;;;;13.98;70.09;98389.59;4998069;28;20041;-77
2023/04/18 01:18:19;;;;;;;6.80;3.58;;;;;;;14.01;70.08;98396.34;4998294;28;20397;-77
2023/04/18 01:20:52;;;;;;;5.40;3.40;;;;;;;13.98;70.35;98394.84;4999690;28;20072;-76
2023/04/18 01:23:17;;;;;;;4.75;3.50;;;;;;;14.01;70.22;98394.56;4999072;28;20124;-76
2023/04/18 01:25:43;;;;;;;6.10;3.47;;;;;;;14.01;70.05;98401.59;4981853;28;20045;-77
2023/04/18 01:28:09;;;;;;;5.55;3.70;;;;;;;14.02;70.05;98403.25;4998527;28;20029;-76
2023/04/18 01:30:35;;;;;;;7.45;3.47;;;;;;;13.97;70.10;98393.19;4982111;28;20025;-76
2023/04/18 01:33:01;;;;;;;6.05;3.35;;;;;;;14.00;70.09;98390.28;4982313;28;20060;-76
2023/04/18 01:35:27;;;;;;;4.80;3.40;;;;;;;13.98;70.20;98386.13;5014835;28;20470;-76
2023/04/18 01:37:53;;;;;;;6.70;3.65;;;;;;;13.97;70.26;98381.88;4981994;28;20029;-76
2023/04/18 01:40:18;;;;;;;6.22;3.33;;;;;;;13.97;70.02;98381.88;4981771;28;20045;-76
2023/04/18 01:42:44;;;;;;;4.60;3.53;;;;;;;14.01;70.04;98394.56;5014529;28;20091;-75
2023/04/18 01:45:10;;;;;;;5.90;3.20;;;;;;;14.02;70.22;98398.00;5014445;28;20025;-76
2023/04/18 01:47:35;;;;;;;6.00;3.60;;;;;;;14.00;70.19;98394.72;4998029;28;20033;-76
2023/04/18 01:50:02;;;;;;;4.63;3.20;;;;;;;14.00;70.07;98398.16;4998071;28;20044;-76
2023/04/18 01:52:27;;;;;;;4.40;2.95;;;;;;;14.00;70.14;98400.78;4981996;28;20096;-76
2023/04/18 01:54:53;;;;;;;5.82;3.38;;;;;;;13.97;70.30;98401.06;4981856;28;20496;-76
2023/04/18 01:57:18;;;;;;;4.95;3.00;;;;;;;13.98;70.18;98400.09;4997985;28;20033;-76
2023/04/18 01:59:44;;;;;;;6.65;3.35;;;;;;;13.98;69.99;98405.34;4981513;28;20038;-76
2023/04/18 02:02:10;;;;;;;4.82;2.97;;;;;;;14.01;70.26;98414.72;4981891;28;20034;-76
2023/04/18 02:04:35;;;;;;;4.95;3.10;;;;;;;13.99;70.23;98414.84;5031879;28;20079;-76
2023/04/18 02:07:01;;;;;;;5.32;3.03;;;;;;;13.94;70.22;98401.38;4998364;28;20029;-76
2023/04/18 02:09:26;;;;;;;4.78;3.08;;;;;;;13.99;70.17;98408.78;4997115;28;20128;-75
2023/04/18 02:11:55;;;;;;;5.53;3.25;;;;;;;13.98;70.09;98413.22;4997365;28;20045;-76
2023/04/18 02:14:20;;;;;;;4.70;3.35;;;;;;;13.96;70.13;98403.84;4997565;28;20048;-76
2023/04/18 02:16:46;;;;;;;3.80;2.95;;;;;;;13.95;70.04;98410.91;4998257;28;20341;-76
2023/04/18 02:19:11;;;;;;;6.82;2.85;;;;;;;13.96;70.28;98411.72;4981696;28;20030;-77
2023/04/18 02:21:37;;;;;;;5.47;3.03;;;;;;;13.93;70.03;98411.03;4997404;28;20052;-76
2023/04/18 02:24:02;;;;;;;4.90;3.00;;;;;;;13.90;70.09;98405.28;5014042;28;20032;-76
2023/04/18 02:26:28;;;;;;;4.57;3.20;;;;;;;13.92;70.19;98412.00;4997759;28;20033;-76
2023/04/18 02:28:53;;;;;;;4.45;2.95;;;;;;;13.90;70.06;98408.72;4997885;28;20032;-76
2023/04/18 02:31:19;;;;;;;5.68;3.10;;;;;;;13.91;70.05;98420.03;4997847;28;20080;-76
2023/04/18 02:33:45;;;;;;;6.40;3.30;;;;;;;13.93;70.23;98423.31;4999445;28;20029;-76
2023/04/18 02:36:14;;;;;;;4.35;3.05;;;;;;;13.87;70.00;98411.63;5001430;28;20033;-77
2023/04/18 02:38:39;;;;;;;4.68;3.13;;;;;;;13.90;70.29;98413.13;5017757;28;20037;-76
2023/04/18 02:41:05;;;;;;;4.95;3.00;;;;;;;13.91;70.18;98422.66;5001453;28;20049;-76
2023/04/18 02:43:30;;;;;;;5.47;2.72;;;;;;;13.89;69.95;98416.72;5017630;28;20026;-76
2023/04/18 02:45:56;;;;;;;3.65;2.78;;;;;;;13.92;70.03;98426.94;4985259;28;20037;-77
2023/04/18 02:48:24;;;;;;;6.07;3.30;;;;;;;13.89;70.29;98414.91;5001510;28;20029;-77
2023/04/18 02:50:50;;;;;;;6.10;2.90;;;;;;;13.93;70.21;98423.31;5001340;28;20056;-77
2023/04/18 02:53:16;;;;;;;3.72;2.70;;;;;;;13.94;70.06;98415.28;5000978;28;20088;-76
2023/04/18 02:55:41;;;;;;;5.25;3.13;;;;;;;13.94;70.32;98415.28;5001178;28;20048;-76
2023/04/18 02:58:07;;;;;;;3.67;2.53;;;;;;;13.94;70.22;98411.84;5001043;28;20076;-76
2023/04/18 03:00:33;;;;;;;4.50;2.90;;;;;;;13.94;70.26;98414.47;5034956;28;20099;-76
2023/04/18 03:02:58;;;;;;;3.75;2.75;;;;;;;13.94;70.16;98415.28;5001265;28;20025;-77
2023/04/18 03:05:24;;;;;;;4.25;2.65;;;;;;;13.88;69.97;98415.91;5000625;28;20060;-77
2023/04/18 03:07:49;;;;;;;5.20;3.00;;;;;;;13.87;69.93;98402.94;5000995;28;20045;-76
2023/04/18 03:10:15;;;;;;;6.40;3.00;;;;;;;13.91;70.01;98420.03;5017271;28;20044;-76
2023/04/18 03:12:41;;;;;;;5.20;2.75;;;;;;;13.88;69.98;98412.44;5017348;28;20025;-76
2023/04/18 03:15:06;;;;;;;4.55;3.10;;;;;;;13.89;69.84;98416.72;5034925;28;20032;-77
2023/04/18 03:17:32;;;;;;;5.43;2.95;;;;;;;13.88;69.91;98417.69;5000949;28;20029;-77
2023/04/18 03:19:57;;;;;;;3.30;2.80;;;;;;;13.87;69.96;98410.81;5000606;28;20053;-76
2023/04/18 03:22:23;;;;;;;7.97;3.13;;;;;;;13.81;69.71;98408.75;5000430;28;20137;-78
2023/04/18 03:24:48;;;;;;;4.03;2.80;;;;;;;13.80;69.75;98407.91;5000670;28;20100;-78
2023/04/18 03:27:14;;;;;;;5.40;3.03;;;;;;;13.80;69.73;98405.28;5000634;28;20026;-78
2023/04/18 03:29:40;;;;;;;5.50;2.88;;;;;;;13.78;69.91;98407.25;5000779;28;20476;-77
2023/04/18 03:32:05;;;;;;;5.45;3.03;;;;;;;13.84;70.16;98419.78;4984159;28;20033;-77
2023/04/18 03:34:31;;;;;;;5.50;2.75;;;;;;;13.84;69.84;98411.09;5000549;28;20515;-72
2023/04/18 03:36:56;;;;;;;5.70;3.20;;;;;;;13.79;69.92;98410.69;5000687;28;20029;-77
2023/04/18 03:39:22;;;;;;;4.80;3.00;;;;;;;13.83;70.02;98417.31;4984302;28;20037;-75
2023/04/18 03:41:48;;;;;;;4.65;2.97;;;;;;;13.82;69.94;98419.13;5017768;28;20480;-75
2023/04/18 03:44:14;;;;;;;5.72;3.42;;;;;;;13.82;69.96;98413.00;5000348;28;20484;-73
2023/04/18 03:46:40;;;;;;;7.90;3.38;;;;;;;13.81;69.96;98417.44;5016040;28;20104;-74
2023/04/18 03:49:05;;;;;;;4.18;3.00;;;;;;;13.83;70.05;98419.94;5000395;28;20543;-75
2023/04/18 03:51:31;;;;;;;4.55;2.97;;;;;;;13.77;69.75;98407.38;4983823;28;20133;-71
2023/04/18 03:53:57;;;;;;;6.75;3.33;;;;;;;13.92;74.24;98411.19;5016465;28;20025;-73
2023/04/18 03:56:22;;;;;;;6.15;3.28;;;;;;;13.91;72.24;98420.03;4983302;28;20095;-73
2023/04/18 03:58:48;;;;;;;10.45;3.08;;;;;;;14.09;78.33;98412.22;5000191;28;20111;-76
2023/04/18 04:01:13;;;;;;;11.07;3.00;;;;;;;14.30;79.59;98414.56;4983909;28;20489;-76
2023/04/18 04:03:39;;;;;;;14.85;2.58;;;;;;;14.38;78.59;98416.44;5016457;28;20042;-73
2023/04/18 04:06:05;;;;;;;15.95;3.50;;;;;;;14.29;75.59;98407.63;4983348;28;20119;-77
2023/04/18 04:08:30;;;;;;;7.50;3.22;;;;;;;14.26;73.79;98410.56;4983983;28;20116;-78
2023/04/18 04:10:56;;;;;;;5.68;3.00;;;;;;;14.23;73.10;98416.09;5016342;28;20116;-76
2023/04/18 04:13:21;;;;;;;5.75;3.30;;;;;;;14.21;72.35;98429.38;5016011;28;20052;-79
2023/04/18 04:15:47;;;;;;;6.00;3.25;;;;;;;14.19;71.75;98430.50;5016465;28;20029;-77
2023/04/18 04:18:12;;;;;;;10.55;3.83;;;;;;;14.17;71.45;98429.81;4999159;28;20099;-76
2023/04/18 04:20:38;;;;;;;9.60;4.05;;;;;;;14.13;71.10;98425.84;4983359;28;20108;-76
2023/04/18 04:23:05;;;;;;;8.93;3.72;;;;;;;14.11;70.79;98426.81;5016125;28;20037;-76
2023/04/18 04:25:32;;;;;;;8.52;4.25;;;;;;;14.13;70.71;98431.09;4999911;28;20552;-77
2023/04/18 04:28:00;;;;;;;6.03;3.92;;;;;;;14.13;70.74;98433.72;5000169;28;20026;-77
2023/04/18 04:30:25;;;;;;;6.85;4.15;;;;;;;14.10;70.48;98433.06;4984188;28;20072;-77
2023/04/18 04:32:52;;;;;;;7.05;4.20;;;;;;;14.07;70.38;98433.34;5033669;28;20072;-76
2023/04/18 04:35:17;;;;;;;7.63;4.25;;;;;;;14.06;70.11;98428.25;4999903;28;20124;-76
2023/04/18 04:37:43;;;;;;;8.10;4.68;;;;;;;14.11;70.12;98434.69;4999435;28;20156;-77
2023/04/18 04:40:09;;;;;;;7.95;4.20;;;;;;;14.16;72.23;98441.31;4999578;28;20116;-73
2023/04/18 04:42:35;;;;;;;10.75;4.40;;;;;;;14.23;72.07;98444.97;4998575;28;20574;-81
2023/04/18 04:45:01;;;;;;;8.25;4.43;;;;;;;14.19;70.96;98436.59;5032837;28;20067;-70
2023/04/18 04:47:27;;;;;;;9.13;4.60;;;;;;;14.25;70.81;98445.69;4982637;28;20095;-70
2023/04/18 04:49:53;;;;;;;11.13;4.90;;;;;;;14.25;70.47;98445.69;4994121;28;20128;-70
2023/04/18 04:52:18;;;;;;;9.95;4.65;;;;;;;14.29;71.47;98453.13;5011893;28;20155;-72
2023/04/18 04:54:45;;;;;;;26.63;4.80;;;;;;;14.64;79.67;98453.31;4965125;28;20046;-71
2023/04/18 04:57:11;;;;;;;10.98;3.95;;;;;;;14.85;80.37;98453.03;5015490;28;20050;-71
2023/04/18 04:59:36;;;;;;;10.55;3.78;;;;;;;14.88;76.64;98451.88;4993720;28;20512;-71
2023/04/18 05:02:02;;;;;;;22.27;4.05;;;;;;;14.83;74.12;98463.69;4994100;28;20042;-71
2023/04/18 05:04:27;;;;;;;17.05;4.13;;;;;;;14.95;75.77;98461.63;5001067;28;20038;-71
2023/04/18 05:06:53;;;;;;;13.48;4.00;;;;;;;15.16;74.86;98460.47;4994016;28;20038;-74
2023/04/18 05:09:19;;;;;;;12.73;3.80;;;;;;;15.12;73.38;98459.16;4994057;28;20026;-76
2023/04/18 05:11:45;;;;;;;14.80;4.45;;;;;;;15.13;72.33;98461.63;5005193;28;20026;-74
2023/04/18 05:14:11;;;;;;;10.75;4.43;;;;;;;15.14;72.48;98465.06;4997316;28;20128;-72
2023/04/18 05:16:36;;;;;;;7.43;3.85;;;;;;;15.19;75.01;98462.81;5031134;28;20473;-72
2023/04/18 05:19:02;;;;;;;14.18;4.60;;;;;;;15.16;72.82;98460.47;5012097;28;20065;-70
2023/04/18 05:21:28;;;;;;;12.02;4.97;;;;;;;15.10;72.49;98468.97;5012831;28;20555;-71
2023/04/18 05:23:54;;;;;;;8.30;5.07;;;;;;;15.04;72.32;98456.44;4996286;28;20723;-71
2023/04/18 05:26:20;;;;;;;14.63;5.00;;;;;;;15.04;71.87;98464.31;4995797;28;20116;-72
2023/04/18 05:28:46;;;;;;;11.80;5.35;;;;;;;15.04;71.54;98465.16;4996363;28;20069;-70
2023/04/18 05:31:11;;;;;;;10.80;4.78;;;;;;;15.09;71.58;98462.09;4997184;28;20084;-70
2023/04/18 05:33:37;;;;;;;19.75;4.95;;;;;;;15.17;74.69;98462.94;5012385;28;20034;-86
2023/04/18 05:36:03;;;;;;;12.15;4.55;;;;;;;15.63;80.86;98461.94;4980155;28;20049;-73
2023/04/18 05:38:28;;;;;;;11.85;4.50;;;;;;;15.84;77.79;98464.22;5012348;28;20041;-71
2023/04/18 05:40:54;;;;;;;18.17;6.68;;;;;;;15.97;74.09;98463.75;4979969;28;20505;-72
2023/04/18 05:43:20;;;;;;;19.88;6.45;;;;;;;16.14;72.52;98456.75;4980441;28;20144;-74
2023/04/18 05:45:46;;;;;;;16.83;7.25;;;;;;;16.25;71.89;98457.28;4996424;28;20055;-72
2023/04/18 05:48:11;;;;;;;20.45;6.72;;;;;;;16.43;70.79;98456.34;4979808;28;20033;-73
2023/04/18 05:50:37;;;;;;;12.60;5.78;;;;;;;16.92;77.69;98456.44;4996583;28;20033;-71
2023/04/18 05:53:02;;;;;;;11.85;4.90;;;;;;;17.15;73.26;98456.59;5012997;28;20037;-71
2023/04/18 05:55:28;;;;;;;12.75;5.32;;;;;;;17.34;70.67;98446.69;5012760;28;20081;-72
2023/04/18 05:57:53;;;;;;;17.02;5.72;;;;;;;17.53;69.06;98454.22;4996773;28;20513;-74
2023/04/18 06:00:19;;;;;;;15.52;5.20;;;;;;;17.82;67.48;98450.19;4980641;28;20033;-72
2023/04/18 06:02:45;;;;;;;23.02;4.95;;;;;;;18.16;71.09;98445.63;4996159;28;20041;-74
2023/04/18 06:05:11;;;;;;;10.73;5.05;;;;;;;18.76;71.88;98449.41;5003344;28;20029;-72
2023/04/18 06:07:37;;;;;;;13.00;4.93;;;;;;;19.94;67.53;98441.84;5012064;28;20033;-76
2023/04/18 06:10:04;;;;;;;15.68;4.75;;;;;;;21.78;60.07;98439.47;4984522;28;20467;-74
2023/04/18 06:12:29;;;;;;;13.03;4.93;;;;;;;23.04;56.91;98435.53;4983749;28;20424;-74
2023/04/18 06:14:55;;;;;;;10.75;4.95;;;;;;;24.27;53.95;98439.34;5000645;28;20038;-73
2023/04/18 06:17:20;;;;;;;11.85;4.43;;;;;;;25.37;51.36;98437.41;4999869;28;20045;-76
2023/04/18 06:19:46;;;;;;;10.10;4.72;;;;;;;26.42;49.07;98438.25;4999781;28;20045;-73
2023/04/18 06:22:13;;;;;;;12.13;4.63;;;;;;;27.35;47.65;98433.38;5034834;28;20033;-78
2023/04/18 06:24:38;;;;;;;10.38;4.35;;;;;;;28.14;46.36;98438.25;4983073;28;20065;-79
2023/04/18 06:27:04;;;;;;;10.43;4.43;;;;;;;28.44;45.59;98439.91;5034105;28;20098;-72
2023/04/18 06:29:31;;;;;;;10.57;4.18;;;;;;;28.75;45.03;98438.59;4999906;28;20177;-72
2023/04/18 06:31:57;;;;;;;10.15;4.35;;;;;;;29.18;44.28;98430.94;5001042;28;20143;-72
2023/04/18 06:34:23;;;;;;;7.95;3.85;;;;;;;29.82;43.13;98429.72;5000061;28;20485;-75
2023/04/18 06:36:48;;;;;;;11.73;4.35;;;;;;;30.38;41.90;98430.38;4983947;28;20029;-77
2023/04/18 06:39:14;;;;;;;9.98;4.00;;;;;;;30.57;41.59;98430.84;4999752;28;20044;-79
2023/04/18 06:41:39;;;;;;;11.20;4.07;;;;;;;30.54;41.27;98430.53;5034118;28;20038;-75
2023/04/18 06:44:05;;;;;;;8.38;4.15;;;;;;;30.61;41.28;98423.03;5034168;28;20548;-77
2023/04/18 06:46:31;;;;;;;11.23;4.38;;;;;;;30.85;39.88;98416.25;5035715;28;20033;-74
2023/04/18 06:48:56;;;;;;;24.45;4.88;;;;;;;30.91;38.59;98427.06;4999343;28;20459;-72
2023/04/18 06:51:22;;;;;;;14.50;4.53;;;;;;;30.59;37.99;98414.41;5033850;28;20041;-70
2023/04/18 06:53:51;;;;;;;14.40;5.05;;;;;;;30.09;37.60;98414.44;4983325;28;20099;-71
2023/04/18 06:56:17;;;;;;;11.85;4.72;;;;;;;29.75;36.56;98411.84;5016223;28;20053;-71
2023/04/18 06:58:42;;;;;;;8.65;4.75;;;;;;;29.48;36.21;98419.03;4999755;28;20041;-70
2023/04/18 07:01:08;;;;;;;11.15;5.10;;;;;;;29.72;35.56;98409.66;5016063;28;20437;-71
2023/04/18 07:03:33;;;;;;;13.15;5.18;;;;;;;29.58;35.75;98409.22;4998832;28;20076;-72
2023/04/18 07:05:59;;;;;;;11.32;5.53;;;;;;;29.50;36.01;98411.53;4999513;28;20033;-70
2023/04/18 07:08:25;;;;;;;8.98;5.88;;;;;;;29.58;35.22;98408.41;5016234;28;20030;-71
2023/04/18 07:10:50;;;;;;;10.35;5.15;;;;;;;30.06;34.43;98412.25;4999216;28;20108;-71
2023/04/18 07:13:16;;;;;;;13.57;5.60;;;;;;;30.40;34.17;98424.75;5000208;28;20100;-73
2023/04/18 07:15:41;;;;;;;12.55;5.35;;;;;;;30.75;32.71;98412.66;5032743;28;20049;-74
2023/04/18 07:18:07;;;;;;;10.85;5.07;;;;;;;31.12;31.90;98401.94;5015300;28;20036;-72
2023/04/18 07:20:32;;;;;;;13.30;5.60;;;;;;;31.43;31.43;98404.78;5032330;28;20452;-75
2023/04/18 07:22:58;;;;;;;20.15;5.90;;;;;;;30.78;31.90;98406.78;5030652;28;20025;-77
2023/04/18 07:25:23;;;;;;;11.20;4.82;;;;;;;30.82;31.03;98402.47;4980284;28;20084;-73
2023/04/18 07:27:49;;;;;;;17.48;4.72;;;;;;;31.21;32.25;98403.03;5034037;28;20080;-74
2023/04/18 07:30:15;;;;;;;17.67;4.35;;;;;;;31.44;31.57;98400.19;4984282;28;20568;-72
2023/04/18 07:32:40;;;;;;;12.93;4.53;;;;;;;31.52;31.45;98395.13;4984661;28;20421;-70
2023/04/18 07:35:06;;;;;;;11.27;4.30;;;;;;;31.54;31.11;98395.72;5034549;28;20488;-74
2023/04/18 07:37:32;;;;;;;9.70;4.30;;;;;;;31.33;28.70;98394.78;5016019;28;20386;-73
2023/04/18 07:39:57;;;;;;;10.35;4.05;;;;;;;31.11;28.36;98392.22;5000926;28;20076;-71
2023/04/18 07:42:23;;;;;;;9.95;4.00;;;;;;;30.84;28.71;98389.56;5000641;28;20480;-70
2023/04/18 07:44:48;;;;;;;7.68;4.00;;;;;;;30.77;28.91;98387.06;5016447;28;20056;-73
2023/04/18 07:47:14;;;;;;;11.52;3.97;;;;;;;30.62;27.89;98389.66;5001785;28;20064;-75
2023/04/18 07:49:39;;;;;;;6.38;4.00;;;;;;;30.55;28.12;98380.97;4984295;28;20060;-74
2023/04/18 07:52:05;;;;;;;9.05;4.10;;;;;;;30.47;27.41;98383.09;4983952;28;20121;-72
2023/04/18 07:54:31;;;;;;;10.05;3.83;;;;;;;30.46;26.92;98380.66;5016690;28;20029;-71
2023/04/18 07:56:58;;;;;;;8.98;4.20;;;;;;;30.38;27.08;98384.59;5000415;28;20029;-73
2023/04/18 07:59:24;;;;;;;7.57;3.70;;;;;;;30.29;27.90;98394.97;4984078;28;20034;-72
2023/04/18 08:01:49;;;;;;;10.77;3.97;;;;;;;30.02;26.87;98394.97;4984008;28;20094;-71
2023/04/18 08:04:15;;;;;;;7.22;3.95;;;;;;;29.85;27.68;98391.56;4983867;28;20034;-73
2023/04/18 08:06:40;;;;;;;5.82;3.58;;;;;;;29.87;28.81;98403.69;4984438;28;20029;-68
2023/04/18 08:09:06;;;;;;;8.65;3.70;;;;;;;30.05;28.19;98418.69;5000170;28;20033;-77
2023/04/18 08:11:32;;;;;;;12.02;3.92;;;;;;;30.35;27.54;98401.25;4985300;28;20471;-83
2023/04/18 08:13:57;;;;;;;6.65;4.18;;;;;;;30.66;26.49;98404.22;4999630;28;20033;-70
2023/04/18 08:16:23;;;;;;;13.10;4.20;;;;;;;30.87;27.09;98405.22;5034138;28;20029;-75
2023/04/18 08:18:50;;;;;;;8.80;3.92;;;;;;;30.98;26.96;98406.13;5000408;28;20071;-77
2023/04/18 08:21:15;;;;;;;8.90;3.83;;;;;;;30.65;27.57;98408.81;4996366;28;20065;-72
2023/04/18 08:23:41;;;;;;;13.45;4.55;;;;;;;30.62;27.10;98405.81;5013840;28;20038;-71
2023/04/18 08:26:06;;;;;;;21.98;4.28;;;;;;;30.83;27.57;98401.41;4996985;28;20053;-73
2023/04/18 08:28:32;;;;;;;11.75;3.85;;;;;;;30.87;27.91;98401.69;4996049;28;20034;-71
2023/04/18 08:30:57;;;;;;;11.50;3.95;;;;;;;30.92;27.82;98407.94;4995797;28;20565;-69
2023/04/18 08:33:23;;;;;;;8.52;3.90;;;;;;;30.16;28.94;98403.47;5012199;28;20050;-69
2023/04/18 08:35:50;;;;;;;11.02;3.92;;;;;;;29.53;29.77;98405.66;5012950;28;20452;-71
2023/04/18 08:38:16;;;;;;;7.55;4.25;;;;;;;28.76;30.96;98421.41;4996438;28;20025;-72
2023/04/18 08:40:42;;;;;;;7.45;4.10;;;;;;;27.95;31.94;98426.91;5012455;28;20073;-74
2023/04/18 08:43:08;;;;;;;7.88;4.60;;;;;;;27.25;33.56;98440.09;5012660;28;20161;-77
2023/04/18 08:45:35;;;;;;;9.80;4.30;;;;;;;26.59;34.84;98439.25;4980109;28;20108;-75
2023/04/18 08:48:02;;;;;;;8.77;4.57;;;;;;;25.95;35.91;98441.50;4995231;28;20038;-78
2023/04/18 08:50:27;;;;;;;8.18;4.43;;;;;;;25.35;37.30;98442.97;4996607;28;20022;-76
2023/04/18 08:52:54;;;;;;;9.52;4.60;;;;;;;24.81;38.42;98444.41;5012556;28;20034;-74
2023/04/18 08:55:24;;;;;;;8.38;4.95;;;;;;;24.24;39.54;98445.13;4993834;28;20537;-77
2023/04/18 08:57:54;;;;;;;8.52;4.88;;;;;;;23.74;40.45;98444.88;4979625;28;20085;-77
2023/04/18 09:00:23;;;;;;;9.88;5.15;;;;;;;23.35;41.31;98425.28;5012381;28;20030;-75
2023/04/18 09:02:53;;;;;;;10.43;4.80;;;;;;;22.97;42.21;98423.25;5012493;28;20034;-76
2023/04/18 09:05:20;;;;;;;6.90;4.93;;;;;;;22.63;43.26;98404.59;4996506;28;20122;-74
2023/04/18 09:07:47;;;;;;;9.60;4.90;;;;;;;22.36;43.75;98399.22;4995888;28;20034;-75
2023/04/18 09:10:12;;;;;;;10.23;4.70;;;;;;;22.15;44.73;98402.00;5012172;28;20045;-77
2023/04/18 09:12:51;;;;;;;8.05;5.22;;;;;;;21.97;45.22;98398.06;4995443;28;20424;-76
2023/04/18 09:15:22;;;;;;;8.75;5.07;;;;;;;21.84;45.88;98396.16;5012407;28;20026;-75
2023/04/18 09:17:49;;;;;;;7.82;5.18;;;;;;;21.72;46.36;98419.00;4980108;28;20037;-75
2023/04/18 09:20:38;;;;;;;7.27;5.47;;;;;;;21.39;47.00;98418.78;4995537;28;20042;-75
2023/04/18 09:23:13;;;;;;;8.43;4.82;;;;;;;21.27;47.40;98429.13;4995833;28;20026;-79
2023/04/18 09:25:46;;;;;;;9.52;5.80;;;;;;;21.09;47.95;98432.25;4996578;28;20121;-79
2023/04/18 09:28:33;;;;;;;8.38;5.65;;;;;;;20.92;48.35;98450.25;5011852;28;20034;-77
2023/04/18 09:31:10;;;;;;;9.65;5.65;;;;;;;20.70;48.93;98447.63;4979452;28;20037;-78
2023/04/18 09:33:36;;;;;;;9.90;6.15;;;;;;;20.56;49.07;98446.66;5011767;28;20037;-76
2023/04/18 09:36:37;;;;;;;10.05;6.00;;;;;;;20.35;49.69;98468.66;4995141;28;20030;-76
2023/04/18 09:39:03;;;;;;;11.52;6.22;;;;;;;20.25;49.88;98479.53;4917784;29;20051;-75
2023/04/18 09:41:30;;;;;;;9.93;6.40;;;;;;;20.06;50.21;98486.22;4901317;29;20408;-75
2023/04/18 09:44:07;;;;;;;9.00;6.88;;;;;;;19.87;50.69;98478.84;4886382;29;20050;-80
2023/04/18 09:46:34;;;;;;;10.00;6.82;;;;;;;19.77;50.87;98491.56;4917479;29;20083;-79
2023/04/18 09:49:03;;;;;;;10.90;6.75;;;;;;;19.63;51.27;98482.56;4901635;29;20099;-79
2023/04/18 09:51:32;;;;;;;9.90;6.25;;;;;;;19.51;51.72;98483.00;4933157;29;20035;-80
2023/04/18 09:54:00;;;;;;;12.80;6.88;;;;;;;19.41;51.86;98478.97;4917320;29;20083;-76
2023/04/18 09:56:27;;;;;;;8.85;6.53;;;;;;;19.31;52.24;98484.53;4886319;29;20040;-78
2023/04/18 09:59:00;;;;;;;11.88;6.70;;;;;;;19.22;52.57;98498.81;4885895;29;20047;-77
2023/04/18 10:01:27;;;;;;;11.82;6.45;;;;;;;19.07;52.84;98499.59;4901966;29;20044;-77
2023/04/18 10:03:53;;;;;;;8.98;6.55;;;;;;;19.05;52.97;98496.28;4917265;29;20040;-81
2023/04/18 10:06:19;;;;;;;10.10;6.85;;;;;;;19.04;53.10;98494.66;4900640;29;20047;-77
2023/04/18 10:08:45;;;;;;;10.40;6.75;;;;;;;19.05;52.97;98480.44;4901033;29;20083;-78
2023/04/18 10:11:10;;;;;;;8.65;6.35;;;;;;;19.09;53.22;98480.91;4916531;29;20043;-79
2023/04/18 10:13:37;;;;;;;11.38;6.97;;;;;;;19.07;53.22;98470.50;4970563;28;20058;-78
2023/04/18 10:16:06;;;;;;;11.43;7.03;;;;;;;19.15;53.45;98469.63;4994684;28;20116;-80
2023/04/18 10:18:33;;;;;;;12.63;7.35;;;;;;;19.20;53.39;98485.78;4994351;28;20584;-81
2023/04/18 10:21:04;;;;;;;10.25;7.18;;;;;;;19.23;53.48;98474.84;4994606;28;20053;-80
2023/04/18 10:23:54;;;;;;;10.20;7.28;;;;;;;19.15;53.84;98475.72;5011403;28;20400;-79
2023/04/18 10:26:56;;;;;;;10.25;7.22;;;;;;;19.06;54.20;98486.56;5011592;28;20715;-81
2023/04/18 10:29:44;;;;;;;11.43;7.47;;;;;;;18.96;54.27;98482.31;4901422;29;20127;-76
2023/04/18 10:32:10;;;;;;;9.77;7.05;;;;;;;18.89;54.66;98475.28;4931080;29;20507;-76
2023/04/18 10:34:37;;;;;;;10.63;7.50;;;;;;;18.82;54.94;98469.84;4932669;29;20046;-76
2023/04/18 10:37:04;;;;;;;10.23;7.13;;;;;;;18.77;55.01;98470.38;4933215;29;20493;-76
2023/04/18 10:39:29;;;;;;;10.25;7.35;;;;;;;18.77;55.25;98477.47;4901515;29;20119;-77
2023/04/18 10:42:11;;;;;;;11.95;7.40;;;;;;;18.76;55.18;98484.56;4901144;29;20478;-78
2023/04/18 10:44:38;;;;;;;11.70;7.50;;;;;;;18.73;55.49;98492.03;4918935;29;20036;-78
2023/04/18 10:47:06;;;;;;;11.10;7.50;;;;;;;18.69;55.49;98491.59;4885586;29;20524;-77
2023/04/18 10:49:32;;;;;;;10.18;7.60;;;;;;;18.63;55.63;98493.09;4932601;29;20055;-77
2023/04/18 10:52:01;;;;;;;12.23;7.60;;;;;;;18.56;55.57;98489.50;4899911;29;20196;-78
2023/04/18 10:54:49;;;;;;;10.32;7.65;;;;;;;18.56;55.67;98500.06;4918114;29;20522;-77
2023/04/18 10:57:16;;;;;;;12.25;7.30;;;;;;;18.55;55.53;98500.22;4887509;29;20048;-76
2023/04/18 10:59:43;;;;;;;10.45;7.80;;;;;;;18.53;55.42;98496.94;4936022;29;20039;-78
2023/04/18 11:02:32;;;;;;;9.80;7.18;;;;;;;18.42;55.69;98491.06;4921461;28;20538;-78
2023/04/18 11:04:59;;;;;;;11.73;7.38;;;;;;;18.44;55.65;98504.13;5015898;28;20029;-79
2023/04/18 11:07:52;;;;;;;13.23;7.30;;;;;;;18.37;55.46;98495.22;4998230;28;20132;-77
2023/04/18 11:10:23;;;;;;;10.75;7.57;;;;;;;18.44;55.54;98497.00;5010077;28;20516;-78
2023/04/18 11:12:49;;;;;;;11.52;7.70;;;;;;;18.38;55.63;98497.69;4997064;28;20045;-77
2023/04/18 11:15:22;;;;;;;9.50;6.75;;;;;;;18.31;55.67;98482.69;4980914;28;20470;-81
2023/04/18 11:18:03;;;;;;;9.63;7.32;;;;;;;18.29;55.94;98484.69;5014675;28;20136;-77
2023/04/18 11:20:29;;;;;;;8.45;7.20;;;;;;;18.27;56.03;98476.94;5013782;28;20131;-77
2023/04/18 11:22:56;;;;;;;8.93;7.50;;;;;;;18.30;55.89;98470.50;4981724;28;20038;-76
2023/04/18 11:25:33;;;;;;;9.50;6.57;;;;;;;18.30;56.11;98467.84;5013584;28;20064;-75
2023/04/18 11:28:00;;;;;;;9.80;7.20;;;;;;;18.23;56.30;98457.13;5013805;28;20037;-78